Página principal
METAR-TAF:

METAR-TAF

Aeroportos :

Yakutat, Alasca, Estados Unidos

latitude: 59-31N, longitude: 139-40W, altura: 11 m

Observação actual do tempo

O boletim foi feito há 44 minutos, às 07:53 UTC
Vento calmo
Temperatura 1°C
Humidade 69%
Pressão 1029 hPa
Visibilidade: 16.1 km
Céu limpo

METAR: PAYA 190753Z AUTO 00000KT 10SM CLR 01/M04 A3040 RMK AO2 SLP294 T00061039 TSNO

Hora: 00:37 (08:37 UTC)

Previsão

O boletim foi feito há 3 horas e 3 minutos, às 05:34 UTC
Previsão válida de 19 às 06 UTC a 20 às 06 UTC
Vento 4 kt com direcção variável
Visibilidade: 10 km
Céu limpo
A partir de 19 às 1600 UTC
Vento 6 kt de es-sudeste
Visibilidade: 10 km
Céu limpo
A partir de 19 às 2300 UTC
Vento 7 kt de sul
Visibilidade: 10 km
Céu limpo

TAF: PAYA 190534Z 1906/2006 VRB04KT P6SM SKC FM191600 12006KT P6SM SKC FM192300 19007KT P6SM SKC AMD LTD TO CLD VIS AND WIND

Observações e previsões do tempo de mais de 4000 aeroportos (mensagens METAR e TAF).

As estações disponíveis são os pontos amarelos e vermelhos sobre o mapa.

Mova o rato sobre o mapa para ver o nome da estação.

Depois clique no ponto para visualizar as observações e previsões meteorológicas.

Para alterar o mapa : clique nos botões verdes com uma cruz preta para aumentar o zoom; no botão verde com uma pitada de zoom; ou nas setas verdes para mapas adjacentes.


METAR-TAF: